Time;durP1;ratioP1;P1;durP2;ratioP2;P2;SDS_P1;SDS_P2;PMS_P1;PMS_P2;Temp;Humidity;BMP_temperature;BMP_pressure;BME280_temperature;BME280_humidity;BME280_pressure;Samples;Min_cycle;Max_cycle;Signal;HPM_P1;HPM_P2
2021/11/03 00:00:23;;;;;;;14.13;8.90;;;25.90;95.80;;;;;;1871733;75;21076;-80
2021/11/03 00:02:54;;;;;;;15.43;10.55;;;25.90;95.80;;;;;;1874329;76;21123;-80
2021/11/03 00:05:25;;;;;;;19.77;12.43;;;26.10;99.90;;;;;;1870073;75;21108;-81
2021/11/03 00:07:57;;;;;;;16.20;9.20;;;26.10;99.90;;;;;;1858952;75;21134;-79
2021/11/03 00:10:28;;;;;;;16.25;9.28;;;26.10;99.90;;;;;;1879854;75;21111;-81
2021/11/03 00:12:59;;;;;;;13.13;8.60;;;26.00;99.90;;;;;;1868342;75;21068;-81
2021/11/03 00:15:30;;;;;;;14.63;9.63;;;26.20;99.90;;;;;;1864718;76;21209;-79
2021/11/03 00:18:01;;;;;;;14.13;8.63;;;26.10;99.90;;;;;;1875910;76;21800;-81
2021/11/03 00:20:32;;;;;;;13.85;7.75;;;26.30;99.70;;;;;;1868930;76;21155;-80
2021/11/03 00:23:05;;;;;;;17.70;8.80;;;26.20;99.50;;;;;;1868331;76;21076;-85
2021/11/03 00:25:40;;;;;;;13.28;7.87;;;26.40;99.60;;;;;;1867537;75;21151;-82
2021/11/03 00:28:09;;;;;;;14.13;7.28;;;26.40;99.70;;;;;;1869018;75;21122;-81
2021/11/03 00:30:41;;;;;;;17.80;7.85;;;26.30;99.60;;;;;;1874083;74;21696;-82
2021/11/03 00:33:12;;;;;;;12.58;6.58;;;26.50;99.60;;;;;;1875890;75;21128;-81
2021/11/03 00:35:43;;;;;;;10.75;6.17;;;26.40;99.40;;;;;;1867065;74;21188;-81
2021/11/03 00:38:14;;;;;;;13.10;5.10;;;26.50;99.50;;;;;;1873152;74;21077;-82
2021/11/03 00:40:45;;;;;;;11.70;5.42;;;26.50;99.50;;;;;;1866937;74;21151;-82
2021/11/03 00:43:15;;;;;;;13.43;6.25;;;26.60;99.40;;;;;;1875815;74;21115;-81
2021/11/03 00:45:47;;;;;;;23.83;6.22;;;26.60;99.20;;;;;;1863114;76;21080;-81
2021/11/03 00:48:18;;;;;;;13.05;5.53;;;26.60;99.10;;;;;;1865845;76;21175;-81
2021/11/03 00:50:49;;;;;;;12.95;5.40;;;26.80;99.40;;;;;;1867646;76;21692;-81
2021/11/03 00:53:21;;;;;;;13.00;5.67;;;26.80;99.50;;;;;;1852831;76;21159;-80
2021/11/03 00:55:51;;;;;;;14.75;5.15;;;26.70;99.60;;;;;;1855857;76;21147;-78
2021/11/03 00:58:22;;;;;;;12.33;5.90;;;26.90;99.60;;;;;;1855616;76;21111;-81
2021/11/03 01:00:53;;;;;;;11.50;5.83;;;26.80;99.50;;;;;;1861376;74;21626;-81
2021/11/03 01:03:24;;;;;;;8.83;5.65;;;27.00;99.70;;;;;;1852907;76;21685;-81
2021/11/03 01:05:55;;;;;;;10.30;5.03;;;26.90;99.70;;;;;;1845732;76;21106;-81
2021/11/03 01:08:26;;;;;;;11.55;5.33;;;27.20;99.90;;;;;;1842642;76;21195;-81
2021/11/03 01:10:57;;;;;;;8.50;4.30;;;27.00;99.90;;;;;;1865604;75;21997;-80
2021/11/03 01:13:28;;;;;;;10.98;4.55;;;27.10;99.90;;;;;;1842474;76;21649;-82
2021/11/03 01:15:59;;;;;;;9.80;4.35;;;27.20;99.90;;;;;;1863545;75;21190;-81
2021/11/03 01:18:34;;;;;;;9.08;4.72;;;27.20;99.90;;;;;;1840847;76;21135;-81
2021/11/03 01:21:05;;;;;;;8.08;4.60;;;27.20;99.90;;;;;;1870698;76;21217;-82
2021/11/03 01:23:36;;;;;;;8.63;4.20;;;27.30;99.90;;;;;;1808553;78;21563;-81
2021/11/03 01:26:07;;;;;;;7.72;4.28;;;27.40;99.90;;;;;;1793812;79;21245;-81
2021/11/03 01:28:38;;;;;;;10.20;4.87;;;27.50;99.40;;;;;;1799715;79;21170;-82
2021/11/03 01:31:08;;;;;;;11.70;4.47;;;27.20;99.00;;;;;;1784902;79;21207;-82
2021/11/03 01:33:40;;;;;;;10.03;4.75;;;27.40;99.10;;;;;;1862124;76;21119;-81
2021/11/03 01:36:15;;;;;;;11.22;4.25;;;27.40;99.00;;;;;;1864710;76;21650;-82
2021/11/03 01:38:45;;;;;;;8.15;3.87;;;27.40;98.70;;;;;;1866680;75;21131;-80
2021/11/03 01:41:16;;;;;;;10.05;5.20;;;27.40;98.60;;;;;;1863982;75;21143;-80
2021/11/03 01:43:49;;;;;;;9.20;3.47;;;27.60;98.70;;;;;;1860179;76;21169;-80
2021/11/03 01:46:22;;;;;;;11.83;3.95;;;27.50;98.60;;;;;;1849925;76;22440;-81
2021/11/03 01:48:56;;;;;;;11.57;4.33;;;27.50;98.60;;;;;;1857326;76;21135;-81
2021/11/03 01:51:29;;;;;;;7.53;3.42;;;27.40;98.70;;;;;;1857115;76;21270;-81
2021/11/03 01:54:05;;;;;;;8.50;3.70;;;27.60;98.20;;;;;;1859997;76;21205;-80
2021/11/03 01:56:36;;;;;;;12.10;4.05;;;27.70;98.20;;;;;;1864105;75;21158;-80
2021/11/03 01:59:09;;;;;;;14.33;4.62;;;27.60;98.30;;;;;;1863889;76;21661;-81
2021/11/03 02:01:40;;;;;;;9.63;3.72;;;27.60;98.60;;;;;;1862689;75;21551;-81
2021/11/03 02:04:15;;;;;;;9.05;4.50;;;27.90;98.10;;;;;;1862559;76;21706;-83
2021/11/03 02:06:46;;;;;;;11.08;4.28;;;27.80;98.20;;;;;;1857785;75;21056;-84
2021/11/03 02:09:18;;;;;;;11.63;4.05;;;27.60;98.20;;;;;;1865285;76;21756;-81
2021/11/03 02:11:50;;;;;;;9.28;3.80;;;27.90;98.70;;;;;;1862243;75;21072;-82
2021/11/03 02:14:21;;;;;;;8.73;3.65;;;27.80;98.70;;;;;;1866437;76;21153;-81
2021/11/03 02:16:53;;;;;;;9.50;3.80;;;27.80;98.30;;;;;;1867090;75;21099;-81
2021/11/03 02:19:26;;;;;;;8.75;3.70;;;27.70;98.30;;;;;;1860988;76;21623;-82
2021/11/03 02:21:59;;;;;;;9.38;3.92;;;27.80;98.20;;;;;;1860483;76;21582;-81
2021/11/03 02:24:32;;;;;;;9.33;3.60;;;27.80;98.30;;;;;;1868161;75;21123;-81
2021/11/03 02:27:04;;;;;;;8.33;4.12;;;28.10;98.30;;;;;;1862243;76;21580;-82
2021/11/03 02:29:35;;;;;;;8.85;3.92;;;28.10;98.10;;;;;;1850327;76;21151;-81
2021/11/03 02:32:08;;;;;;;9.83;3.45;;;28.20;98.10;;;;;;1864091;76;21610;-82
2021/11/03 02:34:39;;;;;;;7.22;3.50;;;28.00;97.90;;;;;;1858741;75;21221;-81
2021/11/03 02:37:12;;;;;;;7.35;2.95;;;28.20;97.90;;;;;;1861165;76;21240;-81
2021/11/03 02:39:45;;;;;;;6.80;3.15;;;28.30;97.70;;;;;;1862343;76;21116;-81
2021/11/03 02:42:24;;;;;;;7.17;3.30;;;28.30;97.70;;;;;;1861825;75;21202;-80
2021/11/03 02:45:08;;;;;;;10.60;3.35;;;28.10;97.70;;;;;;1863351;76;21199;-80
2021/11/03 02:47:39;;;;;;;6.03;3.25;;;28.30;97.40;;;;;;1856733;75;21179;-83
2021/11/03 02:50:11;;;;;;;8.20;2.98;;;28.40;97.20;;;;;;1864764;76;21170;-82
2021/11/03 02:52:43;;;;;;;7.47;3.33;;;28.50;97.20;;;;;;1855038;75;21142;-81
2021/11/03 02:55:14;;;;;;;7.42;2.77;;;28.60;96.80;;;;;;1870277;75;21092;-81
2021/11/03 02:57:45;;;;;;;9.58;3.40;;;28.60;96.60;;;;;;1871038;75;21663;-81
2021/11/03 03:00:18;;;;;;;7.83;3.02;;;28.80;96.60;;;;;;1860782;75;21122;-82
2021/11/03 03:02:49;;;;;;;8.83;3.12;;;28.90;96.50;;;;;;1864492;76;21143;-82
2021/11/03 03:05:21;;;;;;;7.22;2.90;;;28.80;96.40;;;;;;1827036;77;21202;-81
2021/11/03 03:07:51;;;;;;;7.42;2.92;;;28.90;96.80;;;;;;1862303;76;21069;-83
2021/11/03 03:10:22;;;;;;;7.65;3.08;;;29.10;95.90;;;;;;1866166;76;21503;-82
2021/11/03 03:12:53;;;;;;;7.22;2.70;;;29.00;95.60;;;;;;1873125;74;21112;-82
2021/11/03 03:15:24;;;;;;;7.80;3.10;;;29.10;95.70;;;;;;1867704;76;21122;-82
2021/11/03 03:17:55;;;;;;;9.23;3.72;;;29.30;96.10;;;;;;1868312;76;21104;-82
2021/11/03 03:20:26;;;;;;;6.58;3.40;;;29.60;96.50;;;;;;1871194;76;21131;-81
2021/11/03 03:22:57;;;;;;;9.78;3.25;;;29.50;95.50;;;;;;1869626;75;21520;-83
2021/11/03 03:25:29;;;;;;;7.00;3.25;;;29.60;94.90;;;;;;1866504;76;21086;-82
2021/11/03 03:27:59;;;;;;;7.85;3.40;;;29.60;94.50;;;;;;1872335;74;21032;-82
2021/11/03 03:30:30;;;;;;;7.97;3.08;;;29.70;95.10;;;;;;1872306;76;21674;-82
2021/11/03 03:33:01;;;;;;;6.15;2.85;;;29.70;94.70;;;;;;1875900;76;21189;-82
2021/11/03 03:35:31;;;;;;;9.03;3.55;;;30.00;95.00;;;;;;1869336;75;21155;-82
2021/11/03 03:38:02;;;;;;;7.20;2.80;;;30.10;94.70;;;;;;1865657;76;21064;-82
2021/11/03 03:40:33;;;;;;;7.62;3.02;;;30.00;94.90;;;;;;1869278;75;21156;-81
2021/11/03 03:43:04;;;;;;;7.37;3.70;;;30.30;95.00;;;;;;1833269;78;21132;-82
2021/11/03 03:45:35;;;;;;;9.10;3.40;;;30.20;94.80;;;;;;1874228;76;21139;-83
2021/11/03 03:48:06;;;;;;;5.47;2.85;;;30.20;94.80;;;;;;1871184;76;21749;-82
2021/11/03 03:50:39;;;;;;;7.72;3.12;;;30.20;94.60;;;;;;1873077;76;21211;-84
2021/11/03 03:53:10;;;;;;;7.03;3.08;;;30.20;94.70;;;;;;1869365;76;21217;-83
2021/11/03 03:55:41;;;;;;;7.47;2.90;;;30.30;94.40;;;;;;1872269;76;21635;-82
2021/11/03 03:58:12;;;;;;;6.50;3.20;;;30.30;94.50;;;;;;1840005;77;21196;-81
2021/11/03 04:00:43;;;;;;;8.50;2.83;;;30.50;93.90;;;;;;1805464;79;21168;-81
2021/11/03 04:03:15;;;;;;;6.40;2.95;;;30.40;93.80;;;;;;1880090;76;21582;-82
2021/11/03 04:05:46;;;;;;;10.55;3.10;;;30.60;93.50;;;;;;1880050;76;21509;-80
2021/11/03 04:08:19;;;;;;;5.50;2.70;;;30.50;93.20;;;;;;1873295;74;21662;-83
2021/11/03 04:10:50;;;;;;;6.20;3.37;;;30.50;93.40;;;;;;1861416;76;21631;-80
2021/11/03 04:13:21;;;;;;;8.13;3.45;;;30.70;93.10;;;;;;1852905;75;21166;-82
2021/11/03 04:15:54;;;;;;;7.20;3.42;;;30.80;93.10;;;;;;1852487;75;21185;-81
2021/11/03 04:18:26;;;;;;;5.95;2.92;;;30.60;93.10;;;;;;1854065;76;21174;-81
2021/11/03 04:20:57;;;;;;;6.28;2.90;;;30.60;92.80;;;;;;1866996;75;21103;-81
2021/11/03 04:23:28;;;;;;;6.78;2.87;;;30.70;92.50;;;;;;1861320;76;21193;-80
2021/11/03 04:25:59;;;;;;;5.95;3.27;;;30.90;92.00;;;;;;1863415;76;21100;-81
2021/11/03 04:28:30;;;;;;;5.30;2.90;;;30.90;91.00;;;;;;1865623;75;21160;-81
2021/11/03 04:31:02;;;;;;;5.87;2.80;;;30.80;89.40;;;;;;1855602;76;22400;-80
2021/11/03 04:33:33;;;;;;;5.50;2.85;;;31.10;85.90;;;;;;1857890;76;21157;-81
2021/11/03 04:36:04;;;;;;;6.97;2.65;;;31.10;86.60;;;;;;1865595;75;21139;-83
2021/11/03 04:38:35;;;;;;;6.58;3.22;;;31.30;90.10;;;;;;1857595;76;21036;-83
2021/11/03 04:41:06;;;;;;;6.67;2.80;;;31.20;84.70;;;;;;1864830;76;21068;-83
2021/11/03 04:43:37;;;;;;;8.48;2.52;;;31.10;83.80;;;;;;1865296;76;21150;-82
2021/11/03 04:46:08;;;;;;;8.10;3.25;;;31.20;82.80;;;;;;1860588;76;21054;-84
2021/11/03 04:48:39;;;;;;;7.58;3.60;;;31.10;83.30;;;;;;1859856;76;21048;-85
2021/11/03 04:51:10;;;;;;;4.40;2.77;;;31.10;83.20;;;;;;1868499;75;21135;-83
2021/11/03 04:53:41;;;;;;;6.70;2.85;;;31.10;83.40;;;;;;1865300;76;21088;-82
2021/11/03 04:56:14;;;;;;;5.25;2.62;;;31.20;82.40;;;;;;1867710;75;21571;-83
2021/11/03 04:58:46;;;;;;;6.45;2.87;;;31.20;82.10;;;;;;1866233;76;21729;-83
2021/11/03 05:01:20;;;;;;;6.85;3.17;;;31.40;83.00;;;;;;1861525;75;21120;-84
2021/11/03 05:03:51;;;;;;;7.67;2.87;;;31.50;82.50;;;;;;1856692;76;21080;-82
2021/11/03 05:06:24;;;;;;;6.00;2.67;;;31.60;80.70;;;;;;1865881;76;21596;-83
2021/11/03 05:08:56;;;;;;;7.10;3.05;;;31.70;81.70;;;;;;1865999;75;21612;-82
2021/11/03 05:11:27;;;;;;;9.30;3.00;;;31.80;79.40;;;;;;1849329;76;21048;-81
2021/11/03 05:13:58;;;;;;;8.35;2.80;;;31.80;82.40;;;;;;1795963;79;21195;-82
2021/11/03 05:16:29;;;;;;;6.35;2.60;;;31.90;80.40;;;;;;1839638;76;22179;-82
2021/11/03 05:19:01;;;;;;;6.47;3.05;;;31.90;81.60;;;;;;1843113;76;21100;-82
2021/11/03 05:21:33;;;;;;;7.67;2.90;;;31.90;81.10;;;;;;1804517;78;21167;-81
2021/11/03 05:24:05;;;;;;;8.30;3.25;;;31.90;80.00;;;;;;1823613;76;21647;-83
2021/11/03 05:26:36;;;;;;;7.55;2.77;;;31.90;79.60;;;;;;1862626;76;21179;-83
2021/11/03 05:29:07;;;;;;;7.30;2.70;;;31.80;79.50;;;;;;1862968;75;21744;-83
2021/11/03 05:31:38;;;;;;;8.25;3.65;;;31.80;80.10;;;;;;1845341;76;21084;-85
2021/11/03 05:34:09;;;;;;;6.97;3.00;;;31.80;80.20;;;;;;1872555;75;21080;-83
2021/11/03 05:36:40;;;;;;;6.08;2.67;;;31.90;79.50;;;;;;1873773;75;21127;-84
2021/11/03 05:39:13;;;;;;;5.50;2.50;;;31.90;79.50;;;;;;1802885;76;21269;-84
2021/11/03 05:41:44;;;;;;;7.55;2.95;;;31.90;79.90;;;;;;1799460;78;21202;-83
2021/11/03 05:44:18;;;;;;;6.22;2.80;;;31.90;80.20;;;;;;1864249;76;21084;-83
2021/11/03 05:46:51;;;;;;;8.25;2.90;;;32.70;84.60;;;;;;1855402;75;21611;-81
2021/11/03 05:49:24;;;;;;;7.50;2.87;;;32.00;80.00;;;;;;1844085;76;21646;-81
2021/11/03 05:51:56;;;;;;;8.75;3.52;;;32.20;81.20;;;;;;1850134;76;21233;-82
2021/11/03 05:54:28;;;;;;;5.33;2.67;;;32.30;83.50;;;;;;1870323;75;21151;-82
2021/11/03 05:57:02;;;;;;;5.65;2.77;;;32.20;78.70;;;;;;1852377;76;21249;-83
2021/11/03 05:59:35;;;;;;;5.47;2.75;;;32.20;78.60;;;;;;1862818;76;21156;-81
2021/11/03 06:02:06;;;;;;;6.33;3.00;;;32.30;76.80;;;;;;1854266;76;21107;-82
2021/11/03 06:04:36;;;;;;;7.03;3.00;;;32.30;77.90;;;;;;1820233;77;21654;-80
2021/11/03 06:07:07;;;;;;;4.25;2.45;;;32.40;78.00;;;;;;1863347;76;21077;-80
2021/11/03 06:09:38;;;;;;;6.47;2.50;;;32.50;77.90;;;;;;1869395;75;21277;-81
2021/11/03 06:12:10;;;;;;;8.38;2.60;;;32.50;77.30;;;;;;1896420;75;21081;-82
2021/11/03 06:14:40;;;;;;;5.70;2.85;;;32.50;88.20;;;;;;1885905;73;21152;-82
2021/11/03 06:17:11;;;;;;;6.67;3.25;;;32.50;77.00;;;;;;1895716;73;21114;-84
2021/11/03 06:19:42;;;;;;;8.48;3.17;;;32.30;77.40;;;;;;1905470;73;21145;-84
2021/11/03 06:22:12;;;;;;;5.78;3.22;;;32.10;77.60;;;;;;1891221;75;21166;-82
2021/11/03 06:24:45;;;;;;;6.05;2.70;;;32.00;78.00;;;;;;1897425;75;21116;-82
2021/11/03 06:27:15;;;;;;;6.72;2.45;;;32.00;77.80;;;;;;1891812;74;21144;-82
2021/11/03 06:29:46;;;;;;;5.55;2.70;;;32.10;78.20;;;;;;1895397;75;21209;-84
2021/11/03 06:32:17;;;;;;;6.72;2.90;;;32.10;77.90;;;;;;1906369;75;21194;-83
2021/11/03 06:34:47;;;;;;;6.92;2.40;;;32.10;78.80;;;;;;1889710;75;21155;-84
2021/11/03 06:37:18;;;;;;;6.17;2.67;;;32.10;78.80;;;;;;1895368;75;21174;-84
2021/11/03 06:39:49;;;;;;;6.72;3.10;;;32.10;78.30;;;;;;1887862;75;21143;-85
2021/11/03 06:42:19;;;;;;;7.37;3.42;;;32.10;78.50;;;;;;1894369;75;21080;-83
2021/11/03 06:44:51;;;;;;;3.85;2.45;;;32.00;78.90;;;;;;1883998;75;21142;-84
2021/11/03 06:47:21;;;;;;;7.17;2.52;;;31.90;78.40;;;;;;1846396;77;21182;-83
2021/11/03 06:49:54;;;;;;;4.83;2.30;;;31.80;78.40;;;;;;1841052;77;21552;-82
2021/11/03 06:52:25;;;;;;;5.83;2.33;;;31.90;77.80;;;;;;1828315;76;21145;-83
2021/11/03 06:54:56;;;;;;;7.33;2.50;;;31.90;77.70;;;;;;1838734;77;21572;-84
2021/11/03 06:57:27;;;;;;;7.25;2.77;;;31.90;77.60;;;;;;1834201;77;21238;-84
2021/11/03 06:59:59;;;;;;;5.87;2.60;;;32.30;77.80;;;;;;1831729;77;21250;-84
2021/11/03 07:02:29;;;;;;;6.28;2.87;;;32.10;76.80;;;;;;1838202;76;21088;-83
2021/11/03 07:05:00;;;;;;;4.95;2.20;;;32.10;77.80;;;;;;1840831;77;21170;-81
2021/11/03 07:07:31;;;;;;;6.85;2.40;;;32.00;83.80;;;;;;1856131;75;21130;-84
2021/11/03 07:10:02;;;;;;;5.03;2.15;;;31.90;77.30;;;;;;1830996;77;21137;-83
2021/11/03 07:12:33;;;;;;;5.30;2.30;;;31.90;77.40;;;;;;1893909;75;21785;-83
2021/11/03 07:15:04;;;;;;;6.45;2.52;;;31.70;77.20;;;;;;1894618;75;21119;-82
2021/11/03 07:17:35;;;;;;;6.00;2.67;;;31.70;77.70;;;;;;1896091;75;21143;-83
2021/11/03 07:20:07;;;;;;;3.87;2.02;;;31.70;76.50;;;;;;1894275;74;21902;-83
2021/11/03 07:22:38;;;;;;;4.22;2.30;;;31.90;76.70;;;;;;1884459;75;21138;-81
2021/11/03 07:25:09;;;;;;;4.60;2.10;;;31.90;78.50;;;;;;1877561;75;21214;-82
2021/11/03 07:27:40;;;;;;;6.17;2.50;;;32.10;77.20;;;;;;1889265;75;21069;-83
2021/11/03 07:30:12;;;;;;;5.40;2.60;;;32.10;77.10;;;;;;1895852;74;21627;-82
2021/11/03 07:32:43;;;;;;;5.10;2.55;;;32.20;77.40;;;;;;1876975;75;21710;-84
2021/11/03 07:35:15;;;;;;;4.35;2.40;;;32.10;77.40;;;;;;1890898;75;21206;-84
2021/11/03 07:37:47;;;;;;;10.88;3.05;;;32.10;77.70;;;;;;1885047;74;21216;-83
2021/11/03 07:40:21;;;;;;;5.70;2.92;;;32.10;77.10;;;;;;1886819;75;21158;-81
2021/11/03 07:42:52;;;;;;;4.97;2.60;;;31.90;76.80;;;;;;1890108;75;21108;-82
2021/11/03 07:45:24;;;;;;;5.10;2.27;;;31.70;77.20;;;;;;1889265;75;21644;-82
2021/11/03 07:47:55;;;;;;;5.55;2.55;;;31.50;79.30;;;;;;1835283;78;21199;-83
2021/11/03 07:50:29;;;;;;;8.08;2.37;;;31.60;77.40;;;;;;1893195;75;21159;-83
2021/11/03 07:53:10;;;;;;;4.87;2.30;;;31.50;77.80;;;;;;1888931;75;21687;-82
2021/11/03 07:55:36;;;;;;;4.03;2.23;;;31.40;77.20;;;;;;1885275;75;21225;-85
2021/11/03 07:58:07;;;;;;;5.25;2.20;;;31.30;78.00;;;;;;1887496;75;21183;-84
2021/11/03 08:00:38;;;;;;;6.08;2.55;;;31.20;78.00;;;;;;1887729;75;21170;-83
2021/11/03 08:03:09;;;;;;;5.03;2.35;;;31.10;78.30;;;;;;1885729;75;21147;-84
2021/11/03 08:05:40;;;;;;;4.62;2.08;;;31.20;79.10;;;;;;1886113;75;21218;-83
2021/11/03 08:08:14;;;;;;;6.08;3.02;;;31.10;78.50;;;;;;1886809;75;21156;-82
2021/11/03 08:10:45;;;;;;;7.80;3.52;;;31.20;78.80;;;;;;1883441;74;21222;-84
2021/11/03 08:13:17;;;;;;;7.05;2.90;;;31.20;78.70;;;;;;1890366;74;21183;-83
2021/11/03 08:15:50;;;;;;;6.03;2.40;;;31.20;79.70;;;;;;1897463;73;21130;-84
2021/11/03 08:18:24;;;;;;;6.67;2.85;;;31.30;78.90;;;;;;1888181;74;21089;-84
2021/11/03 08:20:56;;;;;;;5.97;2.60;;;31.30;79.30;;;;;;1890389;73;21100;-83
2021/11/03 08:23:27;;;;;;;8.40;2.45;;;31.50;78.60;;;;;;1893647;75;21607;-83
2021/11/03 08:25:58;;;;;;;5.83;2.95;;;31.50;78.90;;;;;;1895133;75;21060;-84
2021/11/03 08:28:28;;;;;;;7.45;3.45;;;31.50;79.20;;;;;;1891129;75;21156;-84
2021/11/03 08:31:00;;;;;;;7.40;2.90;;;31.50;79.40;;;;;;1893471;73;22147;-82
2021/11/03 08:33:33;;;;;;;9.33;3.83;;;31.40;78.50;;;;;;1892554;75;21200;-84
2021/11/03 08:36:06;;;;;;;6.40;2.55;;;31.40;78.40;;;;;;1897001;75;21104;-83
2021/11/03 08:38:39;;;;;;;5.08;2.50;;;31.40;79.10;;;;;;1889284;75;21788;-82
2021/11/03 08:41:10;;;;;;;5.33;2.90;;;31.30;79.00;;;;;;1836361;78;21606;-85
2021/11/03 08:43:42;;;;;;;6.83;2.83;;;31.30;79.20;;;;;;1895658;73;22370;-86
2021/11/03 08:46:14;;;;;;;8.85;3.25;;;31.30;79.00;;;;;;1895796;75;21457;-85
2021/11/03 08:48:46;;;;;;;7.28;3.15;;;31.30;79.30;;;;;;1899720;75;21147;-82
2021/11/03 08:51:17;;;;;;;7.25;2.72;;;31.30;79.20;;;;;;1898592;75;21136;-83
2021/11/03 08:53:50;;;;;;;4.75;2.55;;;31.40;79.00;;;;;;1899250;75;21181;-82
2021/11/03 08:56:21;;;;;;;4.45;2.12;;;31.30;78.60;;;;;;1858609;76;21642;-83
2021/11/03 08:58:52;;;;;;;7.53;2.75;;;31.30;78.50;;;;;;1896303;75;21256;-83
2021/11/03 09:01:24;;;;;;;19.32;3.90;;;31.30;78.20;;;;;;1896417;75;21524;-82
2021/11/03 09:03:54;;;;;;;7.12;2.83;;;31.30;78.20;;;;;;1890147;74;21169;-81
2021/11/03 09:06:25;;;;;;;6.42;2.70;;;31.40;79.70;;;;;;1897358;75;21091;-83
2021/11/03 09:08:56;;;;;;;5.95;2.50;;;31.40;79.00;;;;;;1831943;78;21120;-83
2021/11/03 09:11:27;;;;;;;5.15;2.47;;;31.40;78.70;;;;;;1897422;75;21195;-81
2021/11/03 09:13:58;;;;;;;9.23;5.40;;;31.40;78.40;;;;;;1836130;78;21132;-83
2021/11/03 09:16:30;;;;;;;6.40;3.42;;;31.40;78.70;;;;;;1891163;74;21111;-82
2021/11/03 09:19:01;;;;;;;6.87;3.02;;;31.40;78.20;;;;;;1894943;74;21147;-82
2021/11/03 09:21:32;;;;;;;6.83;3.30;;;31.40;78.50;;;;;;1893712;75;21198;-85
2021/11/03 09:24:03;;;;;;;4.75;2.60;;;31.30;78.80;;;;;;1855900;76;21096;-82
2021/11/03 09:26:33;;;;;;;5.95;2.77;;;31.30;78.60;;;;;;1893670;75;21160;-82
2021/11/03 09:29:06;;;;;;;6.72;2.95;;;31.30;78.90;;;;;;1892701;74;21167;-81
2021/11/03 09:31:37;;;;;;;5.67;2.90;;;31.30;79.30;;;;;;1889908;75;21178;-81
2021/11/03 09:34:08;;;;;;;7.83;3.47;;;31.20;79.40;;;;;;1889084;73;21206;-82
2021/11/03 09:36:42;;;;;;;5.25;2.83;;;31.10;79.30;;;;;;1892678;75;21747;-81
2021/11/03 09:39:13;;;;;;;8.40;3.10;;;31.10;79.70;;;;;;1891724;74;21131;-80
2021/11/03 09:41:46;;;;;;;7.33;2.98;;;31.00;80.30;;;;;;1902721;74;21136;-82
2021/11/03 09:44:19;;;;;;;7.85;3.50;;;31.00;80.70;;;;;;1904061;74;21245;-85
2021/11/03 09:46:59;;;;;;;7.47;2.92;;;31.00;80.90;;;;;;1896674;75;21245;-83
2021/11/03 09:49:33;;;;;;;5.92;2.70;;;31.00;80.70;;;;;;1899261;75;21738;-84
2021/11/03 09:52:07;;;;;;;5.47;2.95;;;31.00;80.70;;;;;;1879912;76;21100;-82
2021/11/03 09:54:38;;;;;;;4.70;2.70;;;31.00;80.70;;;;;;1893252;75;21138;-82
2021/11/03 09:57:11;;;;;;;7.47;2.75;;;30.90;80.80;;;;;;1901713;75;21678;-82
2021/11/03 09:59:45;;;;;;;6.85;2.90;;;30.90;80.80;;;;;;1895614;74;21139;-80
2021/11/03 10:02:18;;;;;;;5.10;2.95;;;30.90;80.70;;;;;;1879921;75;21206;-82
2021/11/03 10:04:51;;;;;;;5.62;2.70;;;30.90;80.80;;;;;;1880920;74;21100;-81
2021/11/03 10:07:25;;;;;;;8.28;4.00;;;30.80;80.80;;;;;;1897968;74;21658;-82
2021/11/03 10:09:56;;;;;;;7.97;3.40;;;30.80;80.90;;;;;;1887142;74;21119;-83
2021/11/03 10:12:26;;;;;;;8.90;3.27;;;30.80;81.00;;;;;;1892517;75;21128;-81
2021/11/03 10:14:58;;;;;;;8.53;4.42;;;30.80;81.30;;;;;;1893488;74;21179;-82
2021/11/03 10:17:31;;;;;;;8.85;4.80;;;30.80;81.10;;;;;;1894618;75;21162;-83
2021/11/03 10:20:03;;;;;;;10.20;4.55;;;30.80;82.30;;;;;;1893473;75;21225;-82
2021/11/03 10:22:38;;;;;;;7.47;4.28;;;30.80;81.70;;;;;;1892325;74;21227;-81
2021/11/03 10:25:11;;;;;;;9.28;4.12;;;30.80;82.20;;;;;;1894805;75;21127;-81
2021/11/03 10:27:44;;;;;;;8.70;4.12;;;30.70;83.20;;;;;;1864525;76;21134;-81
2021/11/03 10:30:18;;;;;;;8.78;4.08;;;30.70;82.70;;;;;;1884608;75;21524;-81
2021/11/03 10:32:53;;;;;;;38.63;7.00;;;30.70;82.70;;;;;;1882772;74;21650;-81
2021/11/03 10:35:27;;;;;;;10.55;4.35;;;30.70;83.30;;;;;;1846372;76;21189;-82
2021/11/03 10:38:01;;;;;;;9.58;4.40;;;30.70;89.10;;;;;;1883277;75;21173;-81
2021/11/03 10:40:35;;;;;;;9.10;3.90;;;30.60;83.10;;;;;;1886597;75;21152;-80
2021/11/03 10:43:09;;;;;;;14.05;3.87;;;30.60;83.60;;;;;;1883637;75;21098;-81
2021/11/03 10:45:40;;;;;;;9.60;4.00;;;30.50;83.80;;;;;;1885201;75;21525;-81
2021/11/03 10:48:14;;;;;;;14.90;4.03;;;30.50;84.20;;;;;;1898790;75;21145;-81
2021/11/03 10:50:48;;;;;;;7.72;3.58;;;30.50;84.30;;;;;;1890031;75;21198;-81
2021/11/03 10:53:26;;;;;;;8.20;4.10;;;30.40;84.40;;;;;;1897649;75;21738;-80
2021/11/03 10:55:57;;;;;;;12.63;4.65;;;30.40;84.60;;;;;;1890574;75;22054;-80
2021/11/03 10:58:30;;;;;;;12.65;4.55;;;30.30;84.50;;;;;;1894097;75;21314;-81
2021/11/03 11:01:04;;;;;;;7.62;4.17;;;30.30;84.80;;;;;;1887597;75;21631;-81
2021/11/03 11:03:38;;;;;;;10.98;4.30;;;30.30;84.50;;;;;;1896579;75;21131;-81
2021/11/03 11:06:11;;;;;;;8.78;4.10;;;30.30;85.20;;;;;;1894725;75;21139;-81
2021/11/03 11:08:49;;;;;;;6.80;4.25;;;30.30;85.40;;;;;;1908205;74;21603;-81
2021/11/03 11:11:18;;;;;;;10.32;4.37;;;30.20;86.20;;;;;;1905091;75;21111;-80
2021/11/03 11:13:53;;;;;;;9.23;4.37;;;30.20;86.30;;;;;;1900682;75;21143;-80
2021/11/03 11:16:26;;;;;;;11.75;4.45;;;30.10;86.30;;;;;;1897979;74;21123;-80
2021/11/03 11:19:00;;;;;;;9.93;4.42;;;30.10;87.00;;;;;;1888717;74;21746;-83
2021/11/03 11:21:34;;;;;;;8.03;4.08;;;30.00;87.10;;;;;;1889536;73;21226;-81
2021/11/03 11:24:08;;;;;;;8.15;4.10;;;30.00;87.50;;;;;;1890518;73;21123;-80
2021/11/03 11:26:41;;;;;;;11.57;4.58;;;30.00;87.90;;;;;;1899935;74;21099;-80
2021/11/03 11:29:17;;;;;;;7.33;4.20;;;29.90;88.10;;;;;;1908657;75;21151;-79
2021/11/03 11:31:51;;;;;;;10.15;4.25;;;29.90;87.80;;;;;;1897129;75;21131;-79
2021/11/03 11:34:25;;;;;;;13.03;5.05;;;29.90;88.10;;;;;;1908177;75;21135;-80
2021/11/03 11:36:58;;;;;;;9.95;4.42;;;29.90;88.80;;;;;;1896601;75;21099;-79
2021/11/03 11:39:31;;;;;;;17.30;4.72;;;29.80;89.50;;;;;;1907958;75;21547;-79
2021/11/03 11:42:04;;;;;;;7.42;4.30;;;29.80;89.50;;;;;;1904720;75;21185;-79
2021/11/03 11:44:44;;;;;;;9.20;4.33;;;29.70;89.20;;;;;;1885556;75;22579;-79
2021/11/03 11:47:22;;;;;;;8.95;4.37;;;29.70;89.60;;;;;;1877043;75;21190;-79
2021/11/03 11:49:54;;;;;;;9.65;4.33;;;29.70;89.50;;;;;;1888150;75;21599;-80
2021/11/03 11:52:31;;;;;;;10.53;4.85;;;29.60;90.00;;;;;;1907856;75;21108;-80
2021/11/03 11:55:10;;;;;;;9.10;4.35;;;29.60;90.30;;;;;;1907694;75;21106;-81
2021/11/03 11:57:48;;;;;;;8.85;4.78;;;29.60;90.40;;;;;;1903870;75;21115;-78
2021/11/03 12:00:27;;;;;;;12.78;4.62;;;29.50;90.50;;;;;;1842282;75;21193;-78
2021/11/03 12:03:11;;;;;;;11.08;4.62;;;29.50;90.20;;;;;;1909981;74;21137;-80
2021/11/03 12:06:14;;;;;;;15.85;5.90;;;29.50;90.50;;;;;;1885939;75;21067;-80
2021/11/03 12:08:33;;;;;;;14.23;5.28;;;29.40;90.70;;;;;;1831058;75;21108;-80
2021/11/03 12:11:09;;;;;;;13.25;6.03;;;29.40;90.80;;;;;;1899069;75;21642;-80
2021/11/03 12:13:42;;;;;;;14.40;5.60;;;29.40;90.90;;;;;;1885521;73;21095;-80
2021/11/03 12:16:15;;;;;;;10.70;5.28;;;29.30;90.70;;;;;;1883067;75;21155;-79
2021/11/03 12:18:48;;;;;;;14.38;5.85;;;29.30;90.70;;;;;;1889584;75;21594;-79
2021/11/03 12:21:22;;;;;;;13.83;6.50;;;29.30;90.90;;;;;;1891583;75;21164;-80
2021/11/03 12:24:00;;;;;;;12.70;6.00;;;29.30;91.10;;;;;;1897536;75;21130;-81
2021/11/03 12:26:40;;;;;;;11.90;7.33;;;29.30;90.80;;;;;;1892773;73;21144;-81
2021/11/03 12:29:15;;;;;;;15.70;7.37;;;29.30;90.90;;;;;;1884197;74;21063;-81
2021/11/03 12:31:54;;;;;;;11.65;7.08;;;29.30;91.30;;;;;;1901785;75;21173;-81
2021/11/03 12:34:34;;;;;;;16.05;8.15;;;29.20;91.50;;;;;;1906044;75;21138;-79
2021/11/03 12:37:11;;;;;;;16.80;7.70;;;29.20;91.50;;;;;;1881066;75;21591;-80
2021/11/03 12:39:47;;;;;;;17.12;8.75;;;29.20;91.70;;;;;;1893329;75;22092;-79
2021/11/03 12:42:20;;;;;;;12.28;7.17;;;29.10;91.80;;;;;;1876135;75;21150;-79
2021/11/03 12:44:56;;;;;;;16.73;9.50;;;29.10;92.00;;;;;;1875529;76;21119;-80
2021/11/03 12:47:29;;;;;;;18.92;8.48;;;29.10;92.10;;;;;;1877449;75;21186;-81
2021/11/03 12:50:03;;;;;;;18.55;9.13;;;29.00;92.10;;;;;;1887203;75;21071;-79
2021/11/03 12:52:40;;;;;;;17.80;9.20;;;29.00;92.20;;;;;;1825748;77;21145;-80
2021/11/03 12:55:13;;;;;;;14.68;9.28;;;29.00;92.20;;;;;;1873738;75;21133;-81
2021/11/03 12:57:46;;;;;;;16.05;9.53;;;29.00;92.10;;;;;;1895650;75;21138;-80
2021/11/03 13:00:21;;;;;;;17.50;9.93;;;28.90;92.10;;;;;;1876024;75;21170;-80
2021/11/03 13:02:54;;;;;;;28.52;11.15;;;28.90;92.10;;;;;;1906371;75;21100;-80
2021/11/03 13:05:32;;;;;;;29.48;11.03;;;29.00;92.10;;;;;;1907307;75;21152;-81
2021/11/03 13:08:01;;;;;;;18.23;10.23;;;28.90;92.10;;;;;;1874859;74;21067;-81